sensor_id;sensor_type;location;lat;lon;timestamp;P1;durP1;ratioP1;P2;durP2;ratioP2
5876;SDS011;2964;42.144;24.730;2023-08-06T00:01:54;12.50;;;10.48;;
5876;SDS011;2964;42.144;24.730;2023-08-06T00:04:21;11.82;;;10.45;;
5876;SDS011;2964;42.144;24.730;2023-08-06T00:06:47;13.93;;;10.77;;
5876;SDS011;2964;42.144;24.730;2023-08-06T00:09:15;11.77;;;10.52;;
5876;SDS011;2964;42.144;24.730;2023-08-06T00:11:42;15.75;;;11.23;;
5876;SDS011;2964;42.144;24.730;2023-08-06T00:14:11;12.77;;;9.75;;
5876;SDS011;2964;42.144;24.730;2023-08-06T00:16:40;11.50;;;10.55;;
5876;SDS011;2964;42.144;24.730;2023-08-06T00:19:09;11.98;;;10.80;;
5876;SDS011;2964;42.144;24.730;2023-08-06T00:21:37;12.57;;;10.85;;
5876;SDS011;2964;42.144;24.730;2023-08-06T00:24:04;18.65;;;11.80;;
5876;SDS011;2964;42.144;24.730;2023-08-06T00:26:32;12.27;;;10.90;;
5876;SDS011;2964;42.144;24.730;2023-08-06T00:28:59;12.23;;;11.13;;
5876;SDS011;2964;42.144;24.730;2023-08-06T00:31:25;12.30;;;11.25;;
5876;SDS011;2964;42.144;24.730;2023-08-06T00:33:52;11.13;;;10.43;;
5876;SDS011;2964;42.144;24.730;2023-08-06T00:36:18;13.38;;;12.05;;
5876;SDS011;2964;42.144;24.730;2023-08-06T00:38:45;12.77;;;11.50;;
5876;SDS011;2964;42.144;24.730;2023-08-06T00:41:12;12.57;;;11.43;;
5876;SDS011;2964;42.144;24.730;2023-08-06T00:43:41;13.23;;;11.98;;
5876;SDS011;2964;42.144;24.730;2023-08-06T00:46:07;12.73;;;11.13;;
5876;SDS011;2964;42.144;24.730;2023-08-06T00:48:34;12.75;;;11.48;;
5876;SDS011;2964;42.144;24.730;2023-08-06T00:51:01;12.98;;;11.77;;
5876;SDS011;2964;42.144;24.730;2023-08-06T00:53:28;12.98;;;11.52;;
5876;SDS011;2964;42.144;24.730;2023-08-06T00:55:55;12.40;;;11.20;;
5876;SDS011;2964;42.144;24.730;2023-08-06T00:58:22;12.63;;;11.57;;
5876;SDS011;2964;42.144;24.730;2023-08-06T01:00:50;13.80;;;10.90;;
5876;SDS011;2964;42.144;24.730;2023-08-06T01:03:17;12.00;;;10.95;;
5876;SDS011;2964;42.144;24.730;2023-08-06T01:05:43;12.45;;;11.68;;
5876;SDS011;2964;42.144;24.730;2023-08-06T01:08:14;12.88;;;11.65;;
5876;SDS011;2964;42.144;24.730;2023-08-06T01:10:51;12.70;;;11.40;;
5876;SDS011;2964;42.144;24.730;2023-08-06T01:13:28;13.70;;;12.55;;
5876;SDS011;2964;42.144;24.730;2023-08-06T01:16:02;13.88;;;12.18;;
5876;SDS011;2964;42.144;24.730;2023-08-06T01:18:30;13.68;;;12.45;;
5876;SDS011;2964;42.144;24.730;2023-08-06T01:20:59;14.40;;;13.00;;
5876;SDS011;2964;42.144;24.730;2023-08-06T01:23:25;14.90;;;12.45;;
5876;SDS011;2964;42.144;24.730;2023-08-06T01:25:56;13.82;;;12.15;;
5876;SDS011;2964;42.144;24.730;2023-08-06T01:28:33;13.43;;;12.38;;
5876;SDS011;2964;42.144;24.730;2023-08-06T01:31:07;13.80;;;12.32;;
5876;SDS011;2964;42.144;24.730;2023-08-06T01:33:40;12.73;;;11.55;;
5876;SDS011;2964;42.144;24.730;2023-08-06T01:36:13;12.98;;;11.88;;
5876;SDS011;2964;42.144;24.730;2023-08-06T01:38:42;13.02;;;11.93;;
5876;SDS011;2964;42.144;24.730;2023-08-06T01:41:09;13.63;;;12.27;;
5876;SDS011;2964;42.144;24.730;2023-08-06T01:43:36;13.85;;;12.50;;
5876;SDS011;2964;42.144;24.730;2023-08-06T01:46:02;13.60;;;12.30;;
5876;SDS011;2964;42.144;24.730;2023-08-06T01:48:29;13.52;;;12.27;;
5876;SDS011;2964;42.144;24.730;2023-08-06T01:50:56;12.93;;;11.98;;
5876;SDS011;2964;42.144;24.730;2023-08-06T01:53:24;12.80;;;11.80;;
5876;SDS011;2964;42.144;24.730;2023-08-06T01:55:50;13.40;;;12.00;;
5876;SDS011;2964;42.144;24.730;2023-08-06T01:58:17;17.92;;;12.88;;
5876;SDS011;2964;42.144;24.730;2023-08-06T02:00:44;14.70;;;12.02;;
5876;SDS011;2964;42.144;24.730;2023-08-06T02:03:10;13.93;;;11.30;;
5876;SDS011;2964;42.144;24.730;2023-08-06T02:05:37;13.38;;;11.90;;
5876;SDS011;2964;42.144;24.730;2023-08-06T02:08:04;13.68;;;12.18;;
5876;SDS011;2964;42.144;24.730;2023-08-06T02:10:32;13.82;;;12.38;;
5876;SDS011;2964;42.144;24.730;2023-08-06T02:12:58;13.60;;;12.25;;
5876;SDS011;2964;42.144;24.730;2023-08-06T02:15:25;14.25;;;11.85;;
5876;SDS011;2964;42.144;24.730;2023-08-06T02:17:52;13.88;;;12.45;;
5876;SDS011;2964;42.144;24.730;2023-08-06T02:20:18;13.70;;;12.35;;
5876;SDS011;2964;42.144;24.730;2023-08-06T02:22:45;14.38;;;13.10;;
5876;SDS011;2964;42.144;24.730;2023-08-06T02:25:11;16.88;;;13.32;;
5876;SDS011;2964;42.144;24.730;2023-08-06T02:27:39;13.85;;;12.63;;
5876;SDS011;2964;42.144;24.730;2023-08-06T02:30:06;14.93;;;12.25;;
5876;SDS011;2964;42.144;24.730;2023-08-06T02:32:33;14.75;;;12.57;;
5876;SDS011;2964;42.144;24.730;2023-08-06T02:35:01;14.02;;;12.73;;
5876;SDS011;2964;42.144;24.730;2023-08-06T02:37:27;15.85;;;14.13;;
5876;SDS011;2964;42.144;24.730;2023-08-06T02:39:54;15.73;;;14.35;;
5876;SDS011;2964;42.144;24.730;2023-08-06T02:42:21;14.85;;;13.63;;
5876;SDS011;2964;42.144;24.730;2023-08-06T02:44:49;15.15;;;13.65;;
5876;SDS011;2964;42.144;24.730;2023-08-06T02:47:16;16.70;;;15.10;;
5876;SDS011;2964;42.144;24.730;2023-08-06T02:49:43;17.98;;;16.13;;
5876;SDS011;2964;42.144;24.730;2023-08-06T02:52:10;15.10;;;13.75;;
5876;SDS011;2964;42.144;24.730;2023-08-06T02:54:36;17.05;;;15.27;;
5876;SDS011;2964;42.144;24.730;2023-08-06T02:57:03;16.23;;;14.45;;
5876;SDS011;2964;42.144;24.730;2023-08-06T02:59:31;19.33;;;15.43;;
5876;SDS011;2964;42.144;24.730;2023-08-06T03:01:59;17.38;;;15.50;;
5876;SDS011;2964;42.144;24.730;2023-08-06T03:04:26;19.27;;;17.20;;
5876;SDS011;2964;42.144;24.730;2023-08-06T03:06:52;18.58;;;16.67;;
5876;SDS011;2964;42.144;24.730;2023-08-06T03:09:19;18.90;;;17.05;;
5876;SDS011;2964;42.144;24.730;2023-08-06T03:11:46;20.70;;;18.75;;
5876;SDS011;2964;42.144;24.730;2023-08-06T03:14:12;21.52;;;19.25;;
5876;SDS011;2964;42.144;24.730;2023-08-06T03:16:39;20.30;;;18.20;;
5876;SDS011;2964;42.144;24.730;2023-08-06T03:19:07;23.83;;;19.48;;
5876;SDS011;2964;42.144;24.730;2023-08-06T03:21:33;19.70;;;17.83;;
5876;SDS011;2964;42.144;24.730;2023-08-06T03:24:00;22.13;;;18.60;;
5876;SDS011;2964;42.144;24.730;2023-08-06T03:26:27;21.45;;;19.55;;
5876;SDS011;2964;42.144;24.730;2023-08-06T03:28:53;22.70;;;20.25;;
5876;SDS011;2964;42.144;24.730;2023-08-06T03:31:19;20.42;;;18.60;;
5876;SDS011;2964;42.144;24.730;2023-08-06T03:33:46;22.25;;;20.20;;
5876;SDS011;2964;42.144;24.730;2023-08-06T03:36:14;21.30;;;19.27;;
5876;SDS011;2964;42.144;24.730;2023-08-06T03:38:40;22.27;;;19.25;;
5876;SDS011;2964;42.144;24.730;2023-08-06T03:41:07;20.95;;;18.10;;
5876;SDS011;2964;42.144;24.730;2023-08-06T03:43:33;21.35;;;19.50;;
5876;SDS011;2964;42.144;24.730;2023-08-06T03:45:59;27.42;;;19.67;;
5876;SDS011;2964;42.144;24.730;2023-08-06T03:48:26;21.85;;;19.65;;
5876;SDS011;2964;42.144;24.730;2023-08-06T03:50:52;22.98;;;20.55;;
5876;SDS011;2964;42.144;24.730;2023-08-06T03:53:20;23.80;;;21.30;;
5876;SDS011;2964;42.144;24.730;2023-08-06T03:55:47;22.35;;;20.10;;
5876;SDS011;2964;42.144;24.730;2023-08-06T03:58:14;25.65;;;23.23;;
5876;SDS011;2964;42.144;24.730;2023-08-06T04:00:40;22.77;;;20.48;;
5876;SDS011;2964;42.144;24.730;2023-08-06T04:03:07;23.55;;;21.15;;
5876;SDS011;2964;42.144;24.730;2023-08-06T04:05:34;24.42;;;21.83;;
5876;SDS011;2964;42.144;24.730;2023-08-06T04:08:00;24.17;;;21.88;;
5876;SDS011;2964;42.144;24.730;2023-08-06T04:10:28;22.30;;;20.20;;
5876;SDS011;2964;42.144;24.730;2023-08-06T04:12:55;27.20;;;23.33;;
5876;SDS011;2964;42.144;24.730;2023-08-06T04:15:22;24.85;;;22.42;;
5876;SDS011;2964;42.144;24.730;2023-08-06T04:17:48;24.92;;;22.45;;
5876;SDS011;2964;42.144;24.730;2023-08-06T04:20:15;26.08;;;23.15;;
5876;SDS011;2964;42.144;24.730;2023-08-06T04:22:42;29.35;;;23.20;;
5876;SDS011;2964;42.144;24.730;2023-08-06T04:25:09;25.27;;;22.85;;
5876;SDS011;2964;42.144;24.730;2023-08-06T04:27:37;25.95;;;23.20;;
5876;SDS011;2964;42.144;24.730;2023-08-06T04:30:06;27.65;;;24.75;;
5876;SDS011;2964;42.144;24.730;2023-08-06T04:32:33;27.13;;;24.50;;
5876;SDS011;2964;42.144;24.730;2023-08-06T04:35:00;28.35;;;25.27;;
5876;SDS011;2964;42.144;24.730;2023-08-06T04:37:27;27.90;;;25.17;;
5876;SDS011;2964;42.144;24.730;2023-08-06T04:39:53;33.00;;;27.13;;
5876;SDS011;2964;42.144;24.730;2023-08-06T04:42:20;27.73;;;25.02;;
5876;SDS011;2964;42.144;24.730;2023-08-06T04:44:49;29.08;;;25.92;;
5876;SDS011;2964;42.144;24.730;2023-08-06T04:47:16;29.00;;;25.90;;
5876;SDS011;2964;42.144;24.730;2023-08-06T04:49:43;29.67;;;26.45;;
5876;SDS011;2964;42.144;24.730;2023-08-06T04:52:09;33.45;;;25.58;;
5876;SDS011;2964;42.144;24.730;2023-08-06T04:54:36;29.95;;;26.98;;
5876;SDS011;2964;42.144;24.730;2023-08-06T04:57:03;28.98;;;26.30;;
5876;SDS011;2964;42.144;24.730;2023-08-06T04:59:30;30.80;;;27.63;;
5876;SDS011;2964;42.144;24.730;2023-08-06T05:01:58;33.67;;;30.35;;
5876;SDS011;2964;42.144;24.730;2023-08-06T05:04:24;31.95;;;28.65;;
5876;SDS011;2964;42.144;24.730;2023-08-06T05:06:51;33.45;;;27.77;;
5876;SDS011;2964;42.144;24.730;2023-08-06T05:09:18;30.85;;;27.48;;
5876;SDS011;2964;42.144;24.730;2023-08-06T05:11:45;30.63;;;27.85;;
5876;SDS011;2964;42.144;24.730;2023-08-06T05:14:12;34.20;;;28.17;;
5876;SDS011;2964;42.144;24.730;2023-08-06T05:16:39;31.88;;;28.50;;
5876;SDS011;2964;42.144;24.730;2023-08-06T05:19:07;34.13;;;30.58;;
5876;SDS011;2964;42.144;24.730;2023-08-06T05:21:33;37.33;;;30.67;;
5876;SDS011;2964;42.144;24.730;2023-08-06T05:24:00;32.40;;;29.13;;
5876;SDS011;2964;42.144;24.730;2023-08-06T05:26:27;33.33;;;28.85;;
5876;SDS011;2964;42.144;24.730;2023-08-06T05:28:53;25.55;;;23.13;;
5876;SDS011;2964;42.144;24.730;2023-08-06T05:31:20;29.55;;;23.23;;
5876;SDS011;2964;42.144;24.730;2023-08-06T05:33:47;21.98;;;19.25;;
5876;SDS011;2964;42.144;24.730;2023-08-06T05:36:15;26.83;;;17.38;;
5876;SDS011;2964;42.144;24.730;2023-08-06T05:38:42;18.92;;;16.00;;
5876;SDS011;2964;42.144;24.730;2023-08-06T05:41:09;20.83;;;17.02;;
5876;SDS011;2964;42.144;24.730;2023-08-06T05:43:36;17.95;;;15.05;;
5876;SDS011;2964;42.144;24.730;2023-08-06T05:46:02;18.30;;;16.45;;
5876;SDS011;2964;42.144;24.730;2023-08-06T05:48:29;17.63;;;15.85;;
5876;SDS011;2964;42.144;24.730;2023-08-06T05:50:57;16.00;;;14.45;;
5876;SDS011;2964;42.144;24.730;2023-08-06T05:53:25;12.85;;;11.48;;
5876;SDS011;2964;42.144;24.730;2023-08-06T05:55:51;13.60;;;12.50;;
5876;SDS011;2964;42.144;24.730;2023-08-06T05:58:18;16.52;;;13.82;;
5876;SDS011;2964;42.144;24.730;2023-08-06T06:00:45;16.20;;;14.23;;
5876;SDS011;2964;42.144;24.730;2023-08-06T06:03:12;16.90;;;15.23;;
5876;SDS011;2964;42.144;24.730;2023-08-06T06:05:38;17.08;;;15.07;;
5876;SDS011;2964;42.144;24.730;2023-08-06T06:08:05;23.58;;;14.73;;
5876;SDS011;2964;42.144;24.730;2023-08-06T06:10:33;19.42;;;15.43;;
5876;SDS011;2964;42.144;24.730;2023-08-06T06:13:01;17.48;;;14.88;;
5876;SDS011;2964;42.144;24.730;2023-08-06T06:15:27;18.10;;;16.17;;
5876;SDS011;2964;42.144;24.730;2023-08-06T06:17:54;18.42;;;16.20;;
5876;SDS011;2964;42.144;24.730;2023-08-06T06:20:21;17.77;;;14.60;;
5876;SDS011;2964;42.144;24.730;2023-08-06T06:22:48;17.98;;;16.13;;
5876;SDS011;2964;42.144;24.730;2023-08-06T06:25:15;18.38;;;16.42;;
5876;SDS011;2964;42.144;24.730;2023-08-06T06:27:43;15.80;;;14.43;;
5876;SDS011;2964;42.144;24.730;2023-08-06T06:30:10;16.75;;;14.95;;
5876;SDS011;2964;42.144;24.730;2023-08-06T06:32:38;18.20;;;16.13;;
5876;SDS011;2964;42.144;24.730;2023-08-06T06:35:05;16.35;;;14.85;;
5876;SDS011;2964;42.144;24.730;2023-08-06T06:37:32;16.25;;;14.82;;
5876;SDS011;2964;42.144;24.730;2023-08-06T06:39:59;18.17;;;16.50;;
5876;SDS011;2964;42.144;24.730;2023-08-06T06:42:25;19.98;;;18.08;;
5876;SDS011;2964;42.144;24.730;2023-08-06T06:44:53;18.27;;;16.37;;
5876;SDS011;2964;42.144;24.730;2023-08-06T06:47:20;18.67;;;16.20;;
5876;SDS011;2964;42.144;24.730;2023-08-06T06:49:47;17.55;;;15.93;;
5876;SDS011;2964;42.144;24.730;2023-08-06T06:52:14;16.63;;;15.00;;
5876;SDS011;2964;42.144;24.730;2023-08-06T06:54:40;17.77;;;16.17;;
5876;SDS011;2964;42.144;24.730;2023-08-06T06:57:07;17.48;;;15.93;;
5876;SDS011;2964;42.144;24.730;2023-08-06T06:59:33;17.48;;;15.80;;
5876;SDS011;2964;42.144;24.730;2023-08-06T07:02:02;17.20;;;15.63;;
5876;SDS011;2964;42.144;24.730;2023-08-06T07:04:28;15.95;;;14.35;;
5876;SDS011;2964;42.144;24.730;2023-08-06T07:06:55;18.30;;;14.35;;
5876;SDS011;2964;42.144;24.730;2023-08-06T07:09:22;18.95;;;13.88;;
5876;SDS011;2964;42.144;24.730;2023-08-06T07:11:48;16.83;;;15.30;;
5876;SDS011;2964;42.144;24.730;2023-08-06T07:14:15;15.23;;;13.70;;
5876;SDS011;2964;42.144;24.730;2023-08-06T07:16:42;16.98;;;15.27;;
5876;SDS011;2964;42.144;24.730;2023-08-06T07:19:10;15.75;;;13.93;;
5876;SDS011;2964;42.144;24.730;2023-08-06T07:21:36;17.35;;;14.07;;
5876;SDS011;2964;42.144;24.730;2023-08-06T07:24:03;14.93;;;13.75;;
5876;SDS011;2964;42.144;24.730;2023-08-06T07:26:30;15.05;;;13.63;;
5876;SDS011;2964;42.144;24.730;2023-08-06T07:28:56;16.25;;;14.68;;
5876;SDS011;2964;42.144;24.730;2023-08-06T07:31:23;15.18;;;13.75;;
5876;SDS011;2964;42.144;24.730;2023-08-06T07:33:50;15.27;;;14.18;;
5876;SDS011;2964;42.144;24.730;2023-08-06T07:36:18;15.45;;;14.07;;
5876;SDS011;2964;42.144;24.730;2023-08-06T07:38:45;16.10;;;14.50;;
5876;SDS011;2964;42.144;24.730;2023-08-06T07:41:13;16.58;;;15.07;;
5876;SDS011;2964;42.144;24.730;2023-08-06T07:43:40;16.15;;;14.70;;
5876;SDS011;2964;42.144;24.730;2023-08-06T07:46:07;15.40;;;14.20;;
5876;SDS011;2964;42.144;24.730;2023-08-06T07:48:34;17.60;;;16.00;;
5876;SDS011;2964;42.144;24.730;2023-08-06T07:51:01;17.77;;;16.23;;
5876;SDS011;2964;42.144;24.730;2023-08-06T07:53:29;20.92;;;17.73;;
5876;SDS011;2964;42.144;24.730;2023-08-06T07:55:56;22.38;;;17.55;;
5876;SDS011;2964;42.144;24.730;2023-08-06T07:58:23;18.65;;;16.95;;
5876;SDS011;2964;42.144;24.730;2023-08-06T08:00:50;19.00;;;17.33;;
5876;SDS011;2964;42.144;24.730;2023-08-06T08:03:17;18.67;;;16.65;;
5876;SDS011;2964;42.144;24.730;2023-08-06T08:05:44;19.58;;;17.75;;
5876;SDS011;2964;42.144;24.730;2023-08-06T08:08:11;20.48;;;18.40;;
5876;SDS011;2964;42.144;24.730;2023-08-06T08:10:39;20.50;;;18.50;;
5876;SDS011;2964;42.144;24.730;2023-08-06T08:13:06;18.75;;;17.13;;
5876;SDS011;2964;42.144;24.730;2023-08-06T08:15:34;19.00;;;17.40;;
5876;SDS011;2964;42.144;24.730;2023-08-06T08:18:01;19.17;;;16.75;;
5876;SDS011;2964;42.144;24.730;2023-08-06T08:20:28;20.58;;;18.67;;
5876;SDS011;2964;42.144;24.730;2023-08-06T08:22:57;19.02;;;17.33;;
5876;SDS011;2964;42.144;24.730;2023-08-06T08:25:24;19.60;;;16.98;;
5876;SDS011;2964;42.144;24.730;2023-08-06T08:27:53;18.73;;;16.80;;
5876;SDS011;2964;42.144;24.730;2023-08-06T08:30:20;18.73;;;17.15;;
5876;SDS011;2964;42.144;24.730;2023-08-06T08:32:47;25.40;;;18.88;;
5876;SDS011;2964;42.144;24.730;2023-08-06T08:35:13;19.73;;;17.95;;
5876;SDS011;2964;42.144;24.730;2023-08-06T08:37:41;18.88;;;17.20;;
5876;SDS011;2964;42.144;24.730;2023-08-06T08:40:08;20.27;;;18.25;;
5876;SDS011;2964;42.144;24.730;2023-08-06T08:42:35;21.52;;;19.42;;
5876;SDS011;2964;42.144;24.730;2023-08-06T08:45:04;20.88;;;19.00;;
5876;SDS011;2964;42.144;24.730;2023-08-06T08:47:34;20.92;;;18.95;;
5876;SDS011;2964;42.144;24.730;2023-08-06T08:50:01;19.85;;;17.85;;
5876;SDS011;2964;42.144;24.730;2023-08-06T08:52:28;18.73;;;17.17;;
5876;SDS011;2964;42.144;24.730;2023-08-06T08:54:57;19.48;;;17.70;;
5876;SDS011;2964;42.144;24.730;2023-08-06T08:57:25;20.63;;;18.65;;
5876;SDS011;2964;42.144;24.730;2023-08-06T08:59:52;19.52;;;17.85;;
5876;SDS011;2964;42.144;24.730;2023-08-06T09:02:21;17.85;;;16.25;;
5876;SDS011;2964;42.144;24.730;2023-08-06T09:04:48;17.30;;;16.05;;
5876;SDS011;2964;42.144;24.730;2023-08-06T09:07:16;14.32;;;13.00;;
5876;SDS011;2964;42.144;24.730;2023-08-06T09:09:46;12.52;;;11.57;;
5876;SDS011;2964;42.144;24.730;2023-08-06T09:12:15;11.90;;;11.00;;
5876;SDS011;2964;42.144;24.730;2023-08-06T09:14:42;11.60;;;10.68;;
5876;SDS011;2964;42.144;24.730;2023-08-06T09:17:09;10.73;;;9.93;;
5876;SDS011;2964;42.144;24.730;2023-08-06T09:19:39;9.55;;;8.85;;
5876;SDS011;2964;42.144;24.730;2023-08-06T09:22:11;8.32;;;7.93;;
5876;SDS011;2964;42.144;24.730;2023-08-06T09:24:39;9.13;;;8.30;;
5876;SDS011;2964;42.144;24.730;2023-08-06T09:27:10;7.97;;;7.68;;
5876;SDS011;2964;42.144;24.730;2023-08-06T09:29:40;8.60;;;8.10;;
5876;SDS011;2964;42.144;24.730;2023-08-06T09:32:08;8.52;;;7.72;;
5876;SDS011;2964;42.144;24.730;2023-08-06T09:34:34;7.45;;;7.15;;
5876;SDS011;2964;42.144;24.730;2023-08-06T09:37:02;8.43;;;8.02;;
5876;SDS011;2964;42.144;24.730;2023-08-06T09:39:30;7.80;;;7.50;;
5876;SDS011;2964;42.144;24.730;2023-08-06T09:41:57;8.85;;;8.18;;
5876;SDS011;2964;42.144;24.730;2023-08-06T09:44:26;7.70;;;7.38;;
5876;SDS011;2964;42.144;24.730;2023-08-06T09:46:54;8.43;;;8.02;;
5876;SDS011;2964;42.144;24.730;2023-08-06T09:49:24;8.52;;;8.13;;
5876;SDS011;2964;42.144;24.730;2023-08-06T09:51:52;8.07;;;7.68;;
5876;SDS011;2964;42.144;24.730;2023-08-06T09:54:23;8.68;;;8.27;;
5876;SDS011;2964;42.144;24.730;2023-08-06T09:56:51;10.23;;;9.70;;
5876;SDS011;2964;42.144;24.730;2023-08-06T09:59:19;10.88;;;10.27;;
5876;SDS011;2964;42.144;24.730;2023-08-06T10:01:46;11.82;;;10.88;;
5876;SDS011;2964;42.144;24.730;2023-08-06T10:04:13;11.77;;;10.95;;
5876;SDS011;2964;42.144;24.730;2023-08-06T10:06:42;11.63;;;10.90;;
5876;SDS011;2964;42.144;24.730;2023-08-06T10:09:12;10.60;;;9.98;;
5876;SDS011;2964;42.144;24.730;2023-08-06T10:11:40;10.48;;;9.88;;
5876;SDS011;2964;42.144;24.730;2023-08-06T10:14:10;11.65;;;10.95;;
5876;SDS011;2964;42.144;24.730;2023-08-06T10:16:39;11.20;;;10.38;;
5876;SDS011;2964;42.144;24.730;2023-08-06T10:19:07;11.40;;;10.60;;
5876;SDS011;2964;42.144;24.730;2023-08-06T10:21:37;12.18;;;11.38;;
5876;SDS011;2964;42.144;24.730;2023-08-06T10:24:06;10.82;;;10.18;;
5876;SDS011;2964;42.144;24.730;2023-08-06T10:26:35;11.05;;;10.30;;
5876;SDS011;2964;42.144;24.730;2023-08-06T10:29:09;10.05;;;9.43;;
5876;SDS011;2964;42.144;24.730;2023-08-06T10:32:02;10.80;;;10.20;;
5876;SDS011;2964;42.144;24.730;2023-08-06T10:37:21;10.63;;;10.02;;
5876;SDS011;2964;42.144;24.730;2023-08-06T10:39:49;10.52;;;10.02;;
5876;SDS011;2964;42.144;24.730;2023-08-06T10:42:20;9.93;;;9.43;;
5876;SDS011;2964;42.144;24.730;2023-08-06T10:47:42;9.20;;;8.80;;
5876;SDS011;2964;42.144;24.730;2023-08-06T10:50:10;10.32;;;9.60;;
5876;SDS011;2964;42.144;24.730;2023-08-06T10:52:38;9.13;;;8.70;;
5876;SDS011;2964;42.144;24.730;2023-08-06T10:55:05;9.80;;;9.18;;
5876;SDS011;2964;42.144;24.730;2023-08-06T10:57:34;9.38;;;8.93;;
5876;SDS011;2964;42.144;24.730;2023-08-06T11:00:01;11.13;;;10.45;;
5876;SDS011;2964;42.144;24.730;2023-08-06T11:02:29;10.35;;;9.70;;
5876;SDS011;2964;42.144;24.730;2023-08-06T11:05:04;9.23;;;8.82;;
5876;SDS011;2964;42.144;24.730;2023-08-06T11:07:31;9.52;;;8.48;;
5876;SDS011;2964;42.144;24.730;2023-08-06T11:10:00;9.45;;;9.05;;
5876;SDS011;2964;42.144;24.730;2023-08-06T11:12:28;9.18;;;8.68;;
5876;SDS011;2964;42.144;24.730;2023-08-06T11:14:54;8.70;;;8.23;;
5876;SDS011;2964;42.144;24.730;2023-08-06T11:17:21;8.75;;;8.35;;
5876;SDS011;2964;42.144;24.730;2023-08-06T11:19:50;9.45;;;8.85;;
5876;SDS011;2964;42.144;24.730;2023-08-06T11:22:17;8.63;;;8.20;;
5876;SDS011;2964;42.144;24.730;2023-08-06T11:24:44;8.65;;;8.25;;
5876;SDS011;2964;42.144;24.730;2023-08-06T11:27:11;8.70;;;8.25;;
5876;SDS011;2964;42.144;24.730;2023-08-06T11:29:39;8.45;;;7.85;;
5876;SDS011;2964;42.144;24.730;2023-08-06T11:32:06;9.20;;;8.63;;
5876;SDS011;2964;42.144;24.730;2023-08-06T11:34:33;9.05;;;8.55;;
5876;SDS011;2964;42.144;24.730;2023-08-06T11:37:01;8.70;;;8.10;;
5876;SDS011;2964;42.144;24.730;2023-08-06T11:39:30;8.60;;;8.00;;
5876;SDS011;2964;42.144;24.730;2023-08-06T11:41:57;8.40;;;7.90;;
5876;SDS011;2964;42.144;24.730;2023-08-06T11:44:25;7.63;;;7.30;;
5876;SDS011;2964;42.144;24.730;2023-08-06T11:46:52;8.90;;;8.30;;
5876;SDS011;2964;42.144;24.730;2023-08-06T11:49:21;7.82;;;7.40;;
5876;SDS011;2964;42.144;24.730;2023-08-06T11:52:08;8.10;;;7.63;;
5876;SDS011;2964;42.144;24.730;2023-08-06T11:54:36;7.88;;;7.38;;
5876;SDS011;2964;42.144;24.730;2023-08-06T11:57:04;8.50;;;7.72;;
5876;SDS011;2964;42.144;24.730;2023-08-06T11:59:32;6.65;;;6.35;;
5876;SDS011;2964;42.144;24.730;2023-08-06T12:01:59;7.00;;;6.63;;
5876;SDS011;2964;42.144;24.730;2023-08-06T12:04:27;7.60;;;7.03;;
5876;SDS011;2964;42.144;24.730;2023-08-06T12:06:54;6.95;;;6.65;;
5876;SDS011;2964;42.144;24.730;2023-08-06T12:09:22;6.40;;;5.97;;
5876;SDS011;2964;42.144;24.730;2023-08-06T12:11:48;7.25;;;6.95;;
5876;SDS011;2964;42.144;24.730;2023-08-06T12:14:15;7.00;;;6.35;;
5876;SDS011;2964;42.144;24.730;2023-08-06T12:16:42;7.63;;;7.22;;
5876;SDS011;2964;42.144;24.730;2023-08-06T12:19:08;7.75;;;7.25;;
5876;SDS011;2964;42.144;24.730;2023-08-06T12:21:35;7.25;;;6.75;;
5876;SDS011;2964;42.144;24.730;2023-08-06T12:24:02;7.05;;;6.75;;
5876;SDS011;2964;42.144;24.730;2023-08-06T12:26:30;6.78;;;6.38;;
5876;SDS011;2964;42.144;24.730;2023-08-06T12:28:56;7.03;;;6.72;;
5876;SDS011;2964;42.144;24.730;2023-08-06T12:31:23;6.00;;;5.72;;
5876;SDS011;2964;42.144;24.730;2023-08-06T12:33:50;6.28;;;5.88;;
5876;SDS011;2964;42.144;24.730;2023-08-06T12:36:16;6.80;;;6.40;;
5876;SDS011;2964;42.144;24.730;2023-08-06T12:38:43;6.50;;;6.10;;
5876;SDS011;2964;42.144;24.730;2023-08-06T12:41:10;6.60;;;6.07;;
5876;SDS011;2964;42.144;24.730;2023-08-06T12:43:38;5.63;;;5.40;;
5876;SDS011;2964;42.144;24.730;2023-08-06T12:46:04;6.32;;;6.03;;
5876;SDS011;2964;42.144;24.730;2023-08-06T12:48:31;5.97;;;5.68;;
5876;SDS011;2964;42.144;24.730;2023-08-06T12:50:58;6.78;;;6.45;;
5876;SDS011;2964;42.144;24.730;2023-08-06T12:53:24;6.72;;;6.32;;
5876;SDS011;2964;42.144;24.730;2023-08-06T12:55:51;6.15;;;5.80;;
5876;SDS011;2964;42.144;24.730;2023-08-06T12:58:17;6.75;;;6.45;;
5876;SDS011;2964;42.144;24.730;2023-08-06T13:00:45;6.80;;;6.20;;
5876;SDS011;2964;42.144;24.730;2023-08-06T13:03:12;7.15;;;6.50;;
5876;SDS011;2964;42.144;24.730;2023-08-06T13:05:39;6.82;;;6.22;;
5876;SDS011;2964;42.144;24.730;2023-08-06T13:08:05;5.70;;;5.38;;
5876;SDS011;2964;42.144;24.730;2023-08-06T13:10:32;5.97;;;5.63;;
5876;SDS011;2964;42.144;24.730;2023-08-06T13:12:59;7.20;;;6.78;;
5876;SDS011;2964;42.144;24.730;2023-08-06T13:15:25;6.47;;;6.18;;
5876;SDS011;2964;42.144;24.730;2023-08-06T13:17:53;6.45;;;6.07;;
5876;SDS011;2964;42.144;24.730;2023-08-06T13:20:20;6.60;;;6.20;;
5876;SDS011;2964;42.144;24.730;2023-08-06T13:22:48;9.10;;;7.85;;
5876;SDS011;2964;42.144;24.730;2023-08-06T13:25:18;6.80;;;6.35;;
5876;SDS011;2964;42.144;24.730;2023-08-06T13:27:45;6.85;;;6.35;;
5876;SDS011;2964;42.144;24.730;2023-08-06T13:30:12;8.60;;;8.00;;
5876;SDS011;2964;42.144;24.730;2023-08-06T13:32:39;6.78;;;6.38;;
5876;SDS011;2964;42.144;24.730;2023-08-06T13:35:07;6.20;;;5.90;;
5876;SDS011;2964;42.144;24.730;2023-08-06T13:37:34;6.60;;;6.30;;
5876;SDS011;2964;42.144;24.730;2023-08-06T13:40:01;7.40;;;7.00;;
5876;SDS011;2964;42.144;24.730;2023-08-06T13:42:28;6.25;;;5.95;;
5876;SDS011;2964;42.144;24.730;2023-08-06T13:44:54;6.13;;;5.80;;
5876;SDS011;2964;42.144;24.730;2023-08-06T13:47:27;6.10;;;5.75;;
5876;SDS011;2964;42.144;24.730;2023-08-06T13:49:54;6.05;;;5.55;;
5876;SDS011;2964;42.144;24.730;2023-08-06T13:52:22;6.75;;;6.25;;
5876;SDS011;2964;42.144;24.730;2023-08-06T13:54:48;5.63;;;5.43;;
5876;SDS011;2964;42.144;24.730;2023-08-06T13:57:15;6.38;;;5.85;;
5876;SDS011;2964;42.144;24.730;2023-08-06T13:59:42;6.68;;;6.20;;
5876;SDS011;2964;42.144;24.730;2023-08-06T14:02:09;6.30;;;5.97;;
5876;SDS011;2964;42.144;24.730;2023-08-06T14:04:36;5.65;;;5.45;;
5876;SDS011;2964;42.144;24.730;2023-08-06T14:07:03;6.18;;;5.78;;
5876;SDS011;2964;42.144;24.730;2023-08-06T14:09:32;9.15;;;5.80;;
5876;SDS011;2964;42.144;24.730;2023-08-06T14:11:59;7.25;;;6.68;;
5876;SDS011;2964;42.144;24.730;2023-08-06T14:14:26;6.65;;;6.25;;
5876;SDS011;2964;42.144;24.730;2023-08-06T14:16:52;6.25;;;5.75;;
5876;SDS011;2964;42.144;24.730;2023-08-06T14:19:20;5.43;;;5.22;;
5876;SDS011;2964;42.144;24.730;2023-08-06T14:21:47;6.20;;;5.45;;
5876;SDS011;2964;42.144;24.730;2023-08-06T14:24:13;6.13;;;5.82;;
5876;SDS011;2964;42.144;24.730;2023-08-06T14:26:41;6.30;;;5.90;;
5876;SDS011;2964;42.144;24.730;2023-08-06T14:29:08;6.47;;;6.07;;
5876;SDS011;2964;42.144;24.730;2023-08-06T14:31:34;7.13;;;6.75;;
5876;SDS011;2964;42.144;24.730;2023-08-06T14:34:01;7.22;;;6.93;;
5876;SDS011;2964;42.144;24.730;2023-08-06T14:36:28;6.18;;;5.97;;
5876;SDS011;2964;42.144;24.730;2023-08-06T14:38:54;6.05;;;5.75;;
5876;SDS011;2964;42.144;24.730;2023-08-06T14:41:21;5.75;;;5.45;;
5876;SDS011;2964;42.144;24.730;2023-08-06T14:43:50;6.22;;;6.03;;
5876;SDS011;2964;42.144;24.730;2023-08-06T14:46:18;5.53;;;5.13;;
5876;SDS011;2964;42.144;24.730;2023-08-06T14:48:44;6.22;;;5.93;;
5876;SDS011;2964;42.144;24.730;2023-08-06T14:51:11;6.78;;;6.30;;